createdAt,value
2023-03-23T15:59:26.165Z,16.50
2023-03-23T16:01:59.929Z,16.49
2023-03-23T16:04:33.885Z,16.46
2023-03-23T16:07:08.150Z,16.48
2023-03-23T16:09:42.734Z,16.44
2023-03-23T16:12:16.221Z,16.42
2023-03-23T16:14:48.941Z,16.38
2023-03-23T16:17:23.624Z,16.36
2023-03-23T16:19:56.879Z,16.31
2023-03-23T16:22:30.123Z,16.29
2023-03-23T16:25:02.674Z,16.24
2023-03-23T16:27:35.342Z,16.22
2023-03-23T16:30:17.979Z,16.18
2023-03-23T16:32:51.935Z,16.15
2023-03-23T16:35:23.545Z,16.15
2023-03-23T16:38:07.317Z,16.07
2023-03-23T16:40:43.571Z,16.03
2023-03-23T16:43:21.396Z,16.04
2023-03-23T16:45:59.865Z,16.08
2023-03-23T16:48:32.878Z,16.11
2023-03-23T16:51:06.917Z,16.06
2023-03-23T16:53:39.739Z,16.04
2023-03-23T16:56:12.714Z,16.01
2023-03-23T16:58:46.096Z,15.97
2023-03-23T17:01:16.854Z,15.95
2023-03-23T17:03:55.664Z,15.87
2023-03-23T17:06:29.666Z,15.85
2023-03-23T17:09:02.171Z,15.79
2023-03-23T17:11:36.127Z,15.74
2023-03-23T17:14:08.570Z,15.70
2023-03-23T17:16:41.404Z,15.67
2023-03-23T17:19:14.759Z,15.64
2023-03-23T17:21:47.316Z,15.59
2023-03-23T17:24:19.898Z,15.57
2023-03-23T17:26:52.768Z,15.54
2023-03-23T17:29:25.737Z,15.48
2023-03-23T17:31:58.385Z,15.42
2023-03-23T17:34:31.170Z,15.42
2023-03-23T17:37:05.126Z,15.42
2023-03-23T17:39:43.274Z,15.40
2023-03-23T17:42:16.937Z,15.38
2023-03-23T17:44:49.594Z,15.43
2023-03-23T17:47:24.272Z,15.43
2023-03-23T17:49:56.993Z,15.45
2023-03-23T17:52:30.056Z,15.42
2023-03-23T17:55:02.690Z,15.39
2023-03-23T17:57:35.435Z,15.41
2023-03-23T18:00:10.930Z,15.43
2023-03-23T18:02:44.210Z,15.46
2023-03-23T18:05:16.936Z,15.51
2023-03-23T18:07:49.577Z,15.52
2023-03-23T18:10:22.180Z,15.54
2023-03-23T18:12:55.087Z,15.55
2023-03-23T18:15:28.325Z,15.53
2023-03-23T18:18:16.195Z,15.53
2023-03-23T18:20:48.838Z,15.52
2023-03-23T18:23:22.868Z,15.49
2023-03-23T18:25:58.105Z,15.47
2023-03-23T18:28:32.577Z,15.45
2023-03-23T18:31:09.636Z,15.41
2023-03-23T18:33:46.929Z,15.38
2023-03-23T18:36:21.480Z,15.39
2023-03-23T18:38:56.479Z,15.33
2023-03-23T18:41:29.094Z,15.32
2023-03-23T18:44:02.548Z,15.28
2023-03-23T18:46:35.451Z,15.24
2023-03-23T18:49:06.868Z,15.20
2023-03-23T18:51:39.845Z,15.10
2023-03-23T18:55:09.188Z,15.11
2023-03-23T19:10:05.598Z,14.88
2023-03-23T19:12:38.928Z,14.88
2023-03-23T19:15:12.770Z,14.88
2023-03-23T19:17:45.762Z,14.83
2023-03-23T19:20:37.415Z,14.81
2023-03-23T19:23:14.617Z,14.80
2023-03-23T19:25:47.370Z,14.78
2023-03-23T19:30:58.492Z,14.72
2023-03-23T19:33:32.750Z,14.67
2023-03-23T19:36:12.091Z,14.65
2023-03-23T19:38:47.028Z,14.58
2023-03-23T19:41:19.752Z,14.53
2023-03-23T19:43:52.561Z,14.53
2023-03-23T19:46:26.454Z,14.52
2023-03-23T19:49:04.024Z,14.49
2023-03-23T19:51:36.981Z,14.46
2023-03-23T19:54:10.093Z,14.38
2023-03-23T19:56:44.379Z,14.36
2023-03-23T19:59:19.172Z,14.38
2023-03-23T20:01:56.466Z,14.39
2023-03-23T20:04:29.916Z,14.37
2023-03-23T20:07:02.797Z,14.37
2023-03-23T20:09:35.855Z,14.32
2023-03-23T20:12:09.835Z,14.35
2023-03-23T20:14:45.352Z,14.33
2023-03-23T20:17:20.756Z,14.30
2023-03-23T20:19:53.627Z,14.28
2023-03-23T20:22:26.319Z,14.25
2023-03-23T20:25:00.518Z,14.25
2023-03-23T20:27:33.663Z,14.23
2023-03-23T20:30:08.420Z,14.21
2023-03-23T20:32:42.920Z,14.13
2023-03-23T20:35:17.069Z,14.11
2023-03-23T20:37:52.988Z,14.09
2023-03-23T20:40:30.166Z,14.10
2023-03-23T20:43:04.070Z,14.10
2023-03-23T20:45:36.959Z,14.10
2023-03-23T20:48:10.046Z,14.10
2023-03-23T20:50:43.107Z,14.09
2023-03-23T20:53:16.180Z,14.09
2023-03-23T20:55:48.818Z,14.07
2023-03-23T20:58:25.538Z,14.04
2023-03-23T21:00:59.825Z,13.98
2023-03-23T21:03:35.002Z,13.94
2023-03-23T21:06:08.547Z,13.91
2023-03-23T21:08:43.511Z,13.87
2023-03-23T21:11:21.858Z,13.82
2023-03-23T21:13:57.527Z,13.79
2023-03-23T21:16:30.817Z,13.75
2023-03-23T21:19:04.312Z,13.74
2023-03-23T21:21:38.034Z,13.72
2023-03-23T21:24:11.384Z,13.70
2023-03-23T21:26:44.933Z,13.68
2023-03-23T21:29:18.089Z,13.65
2023-03-23T21:32:06.984Z,13.61
2023-03-23T21:34:41.402Z,13.59
2023-03-23T21:37:15.670Z,13.56
2023-03-23T21:39:50.541Z,13.55
2023-03-23T21:42:30.736Z,13.53
2023-03-23T21:45:03.961Z,13.45
2023-03-23T21:47:36.647Z,13.45
2023-03-23T21:50:12.201Z,13.45
2023-03-23T21:52:45.434Z,13.47
2023-03-23T21:55:18.389Z,13.46
2023-03-23T21:57:50.950Z,13.46
2023-03-23T22:00:27.333Z,13.45
2023-03-23T22:03:00.100Z,13.43
2023-03-23T22:05:33.460Z,13.43
2023-03-23T22:08:07.303Z,13.43
2023-03-23T22:11:00.740Z,13.44
2023-03-23T22:13:36.057Z,13.46
2023-03-23T22:16:10.970Z,13.50
2023-03-23T22:18:45.651Z,13.56
2023-03-23T22:21:19.819Z,13.60
2023-03-23T22:23:53.449Z,13.63
2023-03-23T22:26:27.548Z,13.65
2023-03-23T22:29:01.739Z,13.66
2023-03-23T22:31:36.897Z,13.65
2023-03-23T22:34:09.951Z,13.65
2023-03-23T22:36:43.694Z,13.64
2023-03-23T22:39:16.391Z,13.64
2023-03-23T22:41:49.727Z,13.65
2023-03-23T22:44:22.817Z,13.68
2023-03-23T22:46:55.525Z,13.68
2023-03-23T22:49:28.505Z,13.70
2023-03-23T22:52:01.780Z,13.73
2023-03-23T22:54:34.613Z,13.73
2023-03-23T22:57:07.762Z,13.71
2023-03-23T22:59:41.359Z,13.72
2023-03-23T23:02:12.520Z,13.73
2023-03-23T23:04:45.283Z,13.70
2023-03-23T23:07:18.420Z,13.72
2023-03-23T23:09:51.778Z,13.73
2023-03-23T23:12:26.201Z,13.71
2023-03-23T23:14:59.886Z,13.69
2023-03-23T23:17:32.454Z,13.74
2023-03-23T23:20:07.535Z,13.68
2023-03-23T23:22:40.463Z,13.73
2023-03-23T23:25:13.229Z,13.77
2023-03-23T23:27:46.349Z,13.77
2023-03-23T23:30:20.158Z,13.75
2023-03-23T23:32:53.144Z,13.76
2023-03-23T23:35:26.669Z,13.76
2023-03-23T23:37:59.560Z,13.74
2023-03-23T23:40:33.458Z,13.73
2023-03-23T23:43:07.257Z,13.73
2023-03-23T23:45:40.365Z,13.72
2023-03-23T23:48:13.868Z,13.72
2023-03-23T23:50:46.938Z,13.71
2023-03-23T23:53:26.028Z,13.64
2023-03-23T23:55:58.682Z,13.64
2023-03-23T23:58:31.846Z,13.63
